sensor_id;sensor_type;location;lat;lon;timestamp;P1;durP1;ratioP1;P2;durP2;ratioP2
47617;SDS011;33336;36.728;-4.414;2022-08-03T00:02:05;6.45;;;3.40;;
47617;SDS011;33336;36.728;-4.414;2022-08-03T00:07:09;6.38;;;3.63;;
47617;SDS011;33336;36.728;-4.414;2022-08-03T00:12:13;10.38;;;3.80;;
47617;SDS011;33336;36.728;-4.414;2022-08-03T00:17:15;9.07;;;3.28;;
47617;SDS011;33336;36.728;-4.414;2022-08-03T00:22:20;5.47;;;3.53;;
47617;SDS011;33336;36.728;-4.414;2022-08-03T00:27:23;6.93;;;4.53;;
47617;SDS011;33336;36.728;-4.414;2022-08-03T00:32:27;8.20;;;5.13;;
47617;SDS011;33336;36.728;-4.414;2022-08-03T00:37:31;9.10;;;4.80;;
47617;SDS011;33336;36.728;-4.414;2022-08-03T00:42:36;7.05;;;5.30;;
47617;SDS011;33336;36.728;-4.414;2022-08-03T00:47:48;7.65;;;5.22;;
47617;SDS011;33336;36.728;-4.414;2022-08-03T00:52:54;5.85;;;4.30;;
47617;SDS011;33336;36.728;-4.414;2022-08-03T00:57:59;9.35;;;4.85;;
47617;SDS011;33336;36.728;-4.414;2022-08-03T01:08:10;5.90;;;3.42;;
47617;SDS011;33336;36.728;-4.414;2022-08-03T01:13:23;4.22;;;2.95;;
47617;SDS011;33336;36.728;-4.414;2022-08-03T01:18:31;7.68;;;3.90;;
47617;SDS011;33336;36.728;-4.414;2022-08-03T01:23:46;6.35;;;2.63;;
47617;SDS011;33336;36.728;-4.414;2022-08-03T01:28:57;6.43;;;3.22;;
47617;SDS011;33336;36.728;-4.414;2022-08-03T01:34:10;4.72;;;2.90;;
47617;SDS011;33336;36.728;-4.414;2022-08-03T01:39:17;3.75;;;2.20;;
47617;SDS011;33336;36.728;-4.414;2022-08-03T01:44:22;4.15;;;2.35;;
47617;SDS011;33336;36.728;-4.414;2022-08-03T01:49:27;6.25;;;2.53;;
47617;SDS011;33336;36.728;-4.414;2022-08-03T01:54:33;6.45;;;2.45;;
47617;SDS011;33336;36.728;-4.414;2022-08-03T01:59:37;5.93;;;2.13;;
47617;SDS011;33336;36.728;-4.414;2022-08-03T02:04:44;5.65;;;2.75;;
47617;SDS011;33336;36.728;-4.414;2022-08-03T02:09:50;4.65;;;2.58;;
47617;SDS011;33336;36.728;-4.414;2022-08-03T02:14:56;6.93;;;2.97;;
47617;SDS011;33336;36.728;-4.414;2022-08-03T02:20:02;11.68;;;3.28;;
47617;SDS011;33336;36.728;-4.414;2022-08-03T02:25:06;4.03;;;2.53;;
47617;SDS011;33336;36.728;-4.414;2022-08-03T02:30:10;3.50;;;2.70;;
47617;SDS011;33336;36.728;-4.414;2022-08-03T02:35:16;3.22;;;2.28;;
47617;SDS011;33336;36.728;-4.414;2022-08-03T02:45:25;6.20;;;2.85;;
47617;SDS011;33336;36.728;-4.414;2022-08-03T02:50:31;9.30;;;3.85;;
47617;SDS011;33336;36.728;-4.414;2022-08-03T02:55:36;4.50;;;2.87;;
47617;SDS011;33336;36.728;-4.414;2022-08-03T03:00:40;7.05;;;3.45;;
47617;SDS011;33336;36.728;-4.414;2022-08-03T03:05:47;6.72;;;3.90;;
47617;SDS011;33336;36.728;-4.414;2022-08-03T03:10:52;6.43;;;2.53;;
47617;SDS011;33336;36.728;-4.414;2022-08-03T03:15:56;4.53;;;2.33;;
47617;SDS011;33336;36.728;-4.414;2022-08-03T03:21:03;3.83;;;2.25;;
47617;SDS011;33336;36.728;-4.414;2022-08-03T03:26:09;3.97;;;2.53;;
47617;SDS011;33336;36.728;-4.414;2022-08-03T03:31:14;3.55;;;2.38;;
47617;SDS011;33336;36.728;-4.414;2022-08-03T03:36:19;4.35;;;2.75;;
47617;SDS011;33336;36.728;-4.414;2022-08-03T03:41:22;5.30;;;1.88;;
47617;SDS011;33336;36.728;-4.414;2022-08-03T03:46:26;4.40;;;1.77;;
47617;SDS011;33336;36.728;-4.414;2022-08-03T03:51:30;6.80;;;2.30;;
47617;SDS011;33336;36.728;-4.414;2022-08-03T03:56:34;4.95;;;2.00;;
47617;SDS011;33336;36.728;-4.414;2022-08-03T04:01:36;2.05;;;1.80;;
47617;SDS011;33336;36.728;-4.414;2022-08-03T04:06:42;4.97;;;2.33;;
47617;SDS011;33336;36.728;-4.414;2022-08-03T04:11:59;5.00;;;2.17;;
47617;SDS011;33336;36.728;-4.414;2022-08-03T04:17:04;6.32;;;2.00;;
47617;SDS011;33336;36.728;-4.414;2022-08-03T04:22:13;4.75;;;1.90;;
47617;SDS011;33336;36.728;-4.414;2022-08-03T04:27:21;6.13;;;2.22;;
47617;SDS011;33336;36.728;-4.414;2022-08-03T04:32:28;4.55;;;2.17;;
47617;SDS011;33336;36.728;-4.414;2022-08-03T04:37:37;9.20;;;1.90;;
47617;SDS011;33336;36.728;-4.414;2022-08-03T04:42:41;5.82;;;2.28;;
47617;SDS011;33336;36.728;-4.414;2022-08-03T04:47:46;3.97;;;1.73;;
47617;SDS011;33336;36.728;-4.414;2022-08-03T04:52:50;4.00;;;2.22;;
47617;SDS011;33336;36.728;-4.414;2022-08-03T04:57:54;5.20;;;2.38;;
47617;SDS011;33336;36.728;-4.414;2022-08-03T05:02:57;2.50;;;1.73;;
47617;SDS011;33336;36.728;-4.414;2022-08-03T05:08:02;3.47;;;2.08;;
47617;SDS011;33336;36.728;-4.414;2022-08-03T05:13:05;7.25;;;2.15;;
47617;SDS011;33336;36.728;-4.414;2022-08-03T05:18:12;9.20;;;2.40;;
47617;SDS011;33336;36.728;-4.414;2022-08-03T05:23:16;4.78;;;2.50;;
47617;SDS011;33336;36.728;-4.414;2022-08-03T05:28:20;3.38;;;2.05;;
47617;SDS011;33336;36.728;-4.414;2022-08-03T05:33:22;4.47;;;2.00;;
47617;SDS011;33336;36.728;-4.414;2022-08-03T05:38:27;7.03;;;2.60;;
47617;SDS011;33336;36.728;-4.414;2022-08-03T05:43:31;4.45;;;2.72;;
47617;SDS011;33336;36.728;-4.414;2022-08-03T05:48:35;4.72;;;2.05;;
47617;SDS011;33336;36.728;-4.414;2022-08-03T05:53:39;8.75;;;2.35;;
47617;SDS011;33336;36.728;-4.414;2022-08-03T05:58:43;4.63;;;2.13;;
47617;SDS011;33336;36.728;-4.414;2022-08-03T06:03:46;6.40;;;2.05;;
47617;SDS011;33336;36.728;-4.414;2022-08-03T06:08:52;5.35;;;2.67;;
47617;SDS011;33336;36.728;-4.414;2022-08-03T06:13:55;9.90;;;2.20;;
47617;SDS011;33336;36.728;-4.414;2022-08-03T06:18:58;9.82;;;2.90;;
47617;SDS011;33336;36.728;-4.414;2022-08-03T06:24:02;7.50;;;2.80;;
47617;SDS011;33336;36.728;-4.414;2022-08-03T06:29:06;7.93;;;2.20;;
47617;SDS011;33336;36.728;-4.414;2022-08-03T06:34:08;8.88;;;3.03;;
47617;SDS011;33336;36.728;-4.414;2022-08-03T06:39:14;7.60;;;1.90;;
47617;SDS011;33336;36.728;-4.414;2022-08-03T06:44:17;8.15;;;3.00;;
47617;SDS011;33336;36.728;-4.414;2022-08-03T06:49:21;10.95;;;2.75;;
47617;SDS011;33336;36.728;-4.414;2022-08-03T06:54:25;14.38;;;3.33;;
47617;SDS011;33336;36.728;-4.414;2022-08-03T06:59:29;3.30;;;2.33;;
47617;SDS011;33336;36.728;-4.414;2022-08-03T07:04:31;10.95;;;2.35;;
47617;SDS011;33336;36.728;-4.414;2022-08-03T07:09:36;9.00;;;2.85;;
47617;SDS011;33336;36.728;-4.414;2022-08-03T07:14:39;11.50;;;2.65;;
47617;SDS011;33336;36.728;-4.414;2022-08-03T07:19:43;14.27;;;3.30;;
47617;SDS011;33336;36.728;-4.414;2022-08-03T07:24:47;14.43;;;3.15;;
47617;SDS011;33336;36.728;-4.414;2022-08-03T07:29:50;16.60;;;2.97;;
47617;SDS011;33336;36.728;-4.414;2022-08-03T07:34:53;11.05;;;2.88;;
47617;SDS011;33336;36.728;-4.414;2022-08-03T07:39:59;19.38;;;3.33;;
47617;SDS011;33336;36.728;-4.414;2022-08-03T07:45:03;12.57;;;2.73;;
47617;SDS011;33336;36.728;-4.414;2022-08-03T07:50:08;11.18;;;2.85;;
47617;SDS011;33336;36.728;-4.414;2022-08-03T07:55:12;7.85;;;2.60;;
47617;SDS011;33336;36.728;-4.414;2022-08-03T08:00:16;17.98;;;4.57;;
47617;SDS011;33336;36.728;-4.414;2022-08-03T08:05:20;28.65;;;5.47;;
47617;SDS011;33336;36.728;-4.414;2022-08-03T08:10:25;19.38;;;3.78;;
47617;SDS011;33336;36.728;-4.414;2022-08-03T08:15:30;17.35;;;3.40;;
47617;SDS011;33336;36.728;-4.414;2022-08-03T08:20:35;13.35;;;2.78;;
47617;SDS011;33336;36.728;-4.414;2022-08-03T08:25:40;13.95;;;2.92;;
47617;SDS011;33336;36.728;-4.414;2022-08-03T08:30:45;16.92;;;3.78;;
47617;SDS011;33336;36.728;-4.414;2022-08-03T08:35:49;9.75;;;2.55;;
47617;SDS011;33336;36.728;-4.414;2022-08-03T08:40:55;10.27;;;2.45;;
47617;SDS011;33336;36.728;-4.414;2022-08-03T08:45:58;8.90;;;3.20;;
47617;SDS011;33336;36.728;-4.414;2022-08-03T08:51:02;8.65;;;2.05;;
47617;SDS011;33336;36.728;-4.414;2022-08-03T08:56:08;7.05;;;1.73;;
47617;SDS011;33336;36.728;-4.414;2022-08-03T09:01:17;2.72;;;1.10;;
47617;SDS011;33336;36.728;-4.414;2022-08-03T09:06:21;7.28;;;1.58;;
47617;SDS011;33336;36.728;-4.414;2022-08-03T09:11:27;10.70;;;2.60;;
47617;SDS011;33336;36.728;-4.414;2022-08-03T09:16:30;4.57;;;1.60;;
47617;SDS011;33336;36.728;-4.414;2022-08-03T09:21:32;5.85;;;1.38;;
47617;SDS011;33336;36.728;-4.414;2022-08-03T09:26:37;2.70;;;1.67;;
47617;SDS011;33336;36.728;-4.414;2022-08-03T09:31:41;5.00;;;1.33;;
47617;SDS011;33336;36.728;-4.414;2022-08-03T09:36:46;2.85;;;1.45;;
47617;SDS011;33336;36.728;-4.414;2022-08-03T09:42:04;5.53;;;1.52;;
47617;SDS011;33336;36.728;-4.414;2022-08-03T09:47:09;5.70;;;1.60;;
47617;SDS011;33336;36.728;-4.414;2022-08-03T09:52:14;3.20;;;1.25;;
47617;SDS011;33336;36.728;-4.414;2022-08-03T09:57:23;13.25;;;1.73;;
47617;SDS011;33336;36.728;-4.414;2022-08-03T10:02:28;6.78;;;1.83;;
47617;SDS011;33336;36.728;-4.414;2022-08-03T10:07:40;4.82;;;1.30;;
47617;SDS011;33336;36.728;-4.414;2022-08-03T10:12:46;5.43;;;1.67;;
47617;SDS011;33336;36.728;-4.414;2022-08-03T10:17:49;5.37;;;1.30;;
47617;SDS011;33336;36.728;-4.414;2022-08-03T10:22:52;12.38;;;2.20;;
47617;SDS011;33336;36.728;-4.414;2022-08-03T10:27:57;3.90;;;1.30;;
47617;SDS011;33336;36.728;-4.414;2022-08-03T10:33:07;6.97;;;1.80;;
47617;SDS011;33336;36.728;-4.414;2022-08-03T10:38:17;5.68;;;1.20;;
47617;SDS011;33336;36.728;-4.414;2022-08-03T10:43:26;5.55;;;1.52;;
47617;SDS011;33336;36.728;-4.414;2022-08-03T10:48:37;8.43;;;1.90;;
47617;SDS011;33336;36.728;-4.414;2022-08-03T10:53:41;4.93;;;1.73;;
47617;SDS011;33336;36.728;-4.414;2022-08-03T10:58:47;6.70;;;1.17;;
47617;SDS011;33336;36.728;-4.414;2022-08-03T11:09:16;4.05;;;1.40;;
47617;SDS011;33336;36.728;-4.414;2022-08-03T11:14:21;3.45;;;1.30;;
47617;SDS011;33336;36.728;-4.414;2022-08-03T11:19:24;6.65;;;2.03;;
47617;SDS011;33336;36.728;-4.414;2022-08-03T11:24:58;5.95;;;1.55;;
47617;SDS011;33336;36.728;-4.414;2022-08-03T11:30:05;5.55;;;1.70;;
47617;SDS011;33336;36.728;-4.414;2022-08-03T11:35:10;7.88;;;1.48;;
47617;SDS011;33336;36.728;-4.414;2022-08-03T11:45:38;8.73;;;1.83;;
47617;SDS011;33336;36.728;-4.414;2022-08-03T11:50:58;4.82;;;1.50;;
47617;SDS011;33336;36.728;-4.414;2022-08-03T11:56:01;6.65;;;1.40;;
47617;SDS011;33336;36.728;-4.414;2022-08-03T12:01:06;4.65;;;1.52;;
47617;SDS011;33336;36.728;-4.414;2022-08-03T12:06:12;4.30;;;1.80;;
47617;SDS011;33336;36.728;-4.414;2022-08-03T12:11:16;2.50;;;1.63;;
47617;SDS011;33336;36.728;-4.414;2022-08-03T12:16:21;4.53;;;1.48;;
47617;SDS011;33336;36.728;-4.414;2022-08-03T12:26:28;3.22;;;1.73;;
47617;SDS011;33336;36.728;-4.414;2022-08-03T12:31:33;2.58;;;1.35;;
47617;SDS011;33336;36.728;-4.414;2022-08-03T12:36:37;2.67;;;1.60;;
47617;SDS011;33336;36.728;-4.414;2022-08-03T12:41:52;4.80;;;1.52;;
47617;SDS011;33336;36.728;-4.414;2022-08-03T12:46:58;2.95;;;1.30;;
47617;SDS011;33336;36.728;-4.414;2022-08-03T12:52:02;5.97;;;1.42;;
47617;SDS011;33336;36.728;-4.414;2022-08-03T12:57:06;3.58;;;1.55;;
47617;SDS011;33336;36.728;-4.414;2022-08-03T13:02:15;1.40;;;1.13;;
47617;SDS011;33336;36.728;-4.414;2022-08-03T13:07:20;2.75;;;1.17;;
47617;SDS011;33336;36.728;-4.414;2022-08-03T13:12:23;3.03;;;1.55;;
47617;SDS011;33336;36.728;-4.414;2022-08-03T13:17:30;4.65;;;1.50;;
47617;SDS011;33336;36.728;-4.414;2022-08-03T13:22:33;5.03;;;1.30;;
47617;SDS011;33336;36.728;-4.414;2022-08-03T13:27:37;2.25;;;1.67;;
47617;SDS011;33336;36.728;-4.414;2022-08-03T13:32:42;2.13;;;1.08;;
47617;SDS011;33336;36.728;-4.414;2022-08-03T13:37:45;2.90;;;1.20;;
47617;SDS011;33336;36.728;-4.414;2022-08-03T13:42:48;2.95;;;1.52;;
47617;SDS011;33336;36.728;-4.414;2022-08-03T13:47:53;4.57;;;1.52;;
47617;SDS011;33336;36.728;-4.414;2022-08-03T13:52:56;6.82;;;1.42;;
47617;SDS011;33336;36.728;-4.414;2022-08-03T13:57:59;2.85;;;1.30;;
47617;SDS011;33336;36.728;-4.414;2022-08-03T14:03:04;4.75;;;1.10;;
47617;SDS011;33336;36.728;-4.414;2022-08-03T14:08:08;2.95;;;1.20;;
47617;SDS011;33336;36.728;-4.414;2022-08-03T14:13:11;2.38;;;0.95;;
47617;SDS011;33336;36.728;-4.414;2022-08-03T14:18:17;4.38;;;1.48;;
47617;SDS011;33336;36.728;-4.414;2022-08-03T14:28:24;5.72;;;2.00;;
47617;SDS011;33336;36.728;-4.414;2022-08-03T14:33:29;3.53;;;1.30;;
47617;SDS011;33336;36.728;-4.414;2022-08-03T14:38:32;5.28;;;1.83;;
47617;SDS011;33336;36.728;-4.414;2022-08-03T14:43:35;3.85;;;1.55;;
47617;SDS011;33336;36.728;-4.414;2022-08-03T14:48:40;7.05;;;2.08;;
47617;SDS011;33336;36.728;-4.414;2022-08-03T14:53:43;3.33;;;1.87;;
47617;SDS011;33336;36.728;-4.414;2022-08-03T14:58:46;4.03;;;1.75;;
47617;SDS011;33336;36.728;-4.414;2022-08-03T15:03:51;4.05;;;1.20;;
47617;SDS011;33336;36.728;-4.414;2022-08-03T15:08:54;4.05;;;1.20;;
47617;SDS011;33336;36.728;-4.414;2022-08-03T15:13:57;2.80;;;1.20;;
47617;SDS011;33336;36.728;-4.414;2022-08-03T15:19:02;4.20;;;1.13;;
47617;SDS011;33336;36.728;-4.414;2022-08-03T15:29:09;2.00;;;1.20;;
47617;SDS011;33336;36.728;-4.414;2022-08-03T15:34:14;2.88;;;1.55;;
47617;SDS011;33336;36.728;-4.414;2022-08-03T15:39:18;3.90;;;1.15;;
47617;SDS011;33336;36.728;-4.414;2022-08-03T15:44:21;4.32;;;1.25;;
47617;SDS011;33336;36.728;-4.414;2022-08-03T15:49:27;3.47;;;1.30;;
47617;SDS011;33336;36.728;-4.414;2022-08-03T15:54:30;4.18;;;1.00;;
47617;SDS011;33336;36.728;-4.414;2022-08-03T15:59:36;3.92;;;1.38;;
47617;SDS011;33336;36.728;-4.414;2022-08-03T16:04:40;5.40;;;1.23;;
47617;SDS011;33336;36.728;-4.414;2022-08-03T16:09:44;3.15;;;1.30;;
47617;SDS011;33336;36.728;-4.414;2022-08-03T16:14:47;5.50;;;1.23;;
47617;SDS011;33336;36.728;-4.414;2022-08-03T16:19:52;3.15;;;1.33;;
47617;SDS011;33336;36.728;-4.414;2022-08-03T16:24:55;4.97;;;1.35;;
47617;SDS011;33336;36.728;-4.414;2022-08-03T16:29:58;3.78;;;1.20;;
47617;SDS011;33336;36.728;-4.414;2022-08-03T16:35:03;1.70;;;1.30;;
47617;SDS011;33336;36.728;-4.414;2022-08-03T16:40:08;5.88;;;1.48;;
47617;SDS011;33336;36.728;-4.414;2022-08-03T16:45:13;3.92;;;1.25;;
47617;SDS011;33336;36.728;-4.414;2022-08-03T16:50:18;3.90;;;1.38;;
47617;SDS011;33336;36.728;-4.414;2022-08-03T16:55:21;2.42;;;0.95;;
47617;SDS011;33336;36.728;-4.414;2022-08-03T17:00:24;3.60;;;1.45;;
47617;SDS011;33336;36.728;-4.414;2022-08-03T17:05:29;3.90;;;2.33;;
47617;SDS011;33336;36.728;-4.414;2022-08-03T17:10:32;4.65;;;1.42;;
47617;SDS011;33336;36.728;-4.414;2022-08-03T17:15:35;4.35;;;1.30;;
47617;SDS011;33336;36.728;-4.414;2022-08-03T17:20:44;3.47;;;1.10;;
47617;SDS011;33336;36.728;-4.414;2022-08-03T17:25:50;3.78;;;1.40;;
47617;SDS011;33336;36.728;-4.414;2022-08-03T17:30:53;3.80;;;1.20;;
47617;SDS011;33336;36.728;-4.414;2022-08-03T17:36:15;6.30;;;1.70;;
47617;SDS011;33336;36.728;-4.414;2022-08-03T17:41:22;3.63;;;1.45;;
47617;SDS011;33336;36.728;-4.414;2022-08-03T17:51:30;8.38;;;1.75;;
47617;SDS011;33336;36.728;-4.414;2022-08-03T17:56:38;5.47;;;1.55;;
47617;SDS011;33336;36.728;-4.414;2022-08-03T18:01:49;2.30;;;1.48;;
47617;SDS011;33336;36.728;-4.414;2022-08-03T18:07:16;4.22;;;1.27;;
47617;SDS011;33336;36.728;-4.414;2022-08-03T18:12:25;3.70;;;1.30;;
47617;SDS011;33336;36.728;-4.414;2022-08-03T18:22:34;3.05;;;1.60;;
47617;SDS011;33336;36.728;-4.414;2022-08-03T18:32:41;3.50;;;1.33;;
47617;SDS011;33336;36.728;-4.414;2022-08-03T18:37:46;5.38;;;1.60;;
47617;SDS011;33336;36.728;-4.414;2022-08-03T18:42:50;5.28;;;1.50;;
47617;SDS011;33336;36.728;-4.414;2022-08-03T18:47:56;3.38;;;1.20;;
47617;SDS011;33336;36.728;-4.414;2022-08-03T18:53:10;4.47;;;1.58;;
47617;SDS011;33336;36.728;-4.414;2022-08-03T18:58:18;14.60;;;2.45;;
47617;SDS011;33336;36.728;-4.414;2022-08-03T19:03:25;4.15;;;1.70;;
47617;SDS011;33336;36.728;-4.414;2022-08-03T19:08:38;6.97;;;2.60;;
47617;SDS011;33336;36.728;-4.414;2022-08-03T19:13:49;4.43;;;2.30;;
47617;SDS011;33336;36.728;-4.414;2022-08-03T19:18:56;4.43;;;1.77;;
47617;SDS011;33336;36.728;-4.414;2022-08-03T19:24:03;3.87;;;1.87;;
47617;SDS011;33336;36.728;-4.414;2022-08-03T19:29:08;4.68;;;1.63;;
47617;SDS011;33336;36.728;-4.414;2022-08-03T19:34:12;5.82;;;2.25;;
47617;SDS011;33336;36.728;-4.414;2022-08-03T19:39:18;7.80;;;2.13;;
47617;SDS011;33336;36.728;-4.414;2022-08-03T19:44:22;6.28;;;2.05;;
47617;SDS011;33336;36.728;-4.414;2022-08-03T19:49:32;6.15;;;2.13;;
47617;SDS011;33336;36.728;-4.414;2022-08-03T19:54:40;7.88;;;2.05;;
47617;SDS011;33336;36.728;-4.414;2022-08-03T19:59:45;10.00;;;2.58;;
47617;SDS011;33336;36.728;-4.414;2022-08-03T20:04:50;7.95;;;2.42;;
47617;SDS011;33336;36.728;-4.414;2022-08-03T20:09:55;6.68;;;2.83;;
47617;SDS011;33336;36.728;-4.414;2022-08-03T20:14:59;7.40;;;2.80;;
47617;SDS011;33336;36.728;-4.414;2022-08-03T20:20:04;6.78;;;2.63;;
47617;SDS011;33336;36.728;-4.414;2022-08-03T20:25:10;9.18;;;2.63;;
47617;SDS011;33336;36.728;-4.414;2022-08-03T20:30:13;7.57;;;3.50;;
47617;SDS011;33336;36.728;-4.414;2022-08-03T20:35:17;7.45;;;4.18;;
47617;SDS011;33336;36.728;-4.414;2022-08-03T20:40:22;6.80;;;3.25;;
47617;SDS011;33336;36.728;-4.414;2022-08-03T20:45:25;7.28;;;3.92;;
47617;SDS011;33336;36.728;-4.414;2022-08-03T20:50:29;5.13;;;2.83;;
47617;SDS011;33336;36.728;-4.414;2022-08-03T20:55:34;9.60;;;2.78;;
47617;SDS011;33336;36.728;-4.414;2022-08-03T21:00:39;6.25;;;2.78;;
47617;SDS011;33336;36.728;-4.414;2022-08-03T21:05:44;9.13;;;3.22;;
47617;SDS011;33336;36.728;-4.414;2022-08-03T21:10:49;9.32;;;3.38;;
47617;SDS011;33336;36.728;-4.414;2022-08-03T21:20:58;9.20;;;2.95;;
47617;SDS011;33336;36.728;-4.414;2022-08-03T21:26:04;7.07;;;3.17;;
47617;SDS011;33336;36.728;-4.414;2022-08-03T21:31:07;7.60;;;2.90;;
47617;SDS011;33336;36.728;-4.414;2022-08-03T21:36:11;6.38;;;3.40;;
47617;SDS011;33336;36.728;-4.414;2022-08-03T21:41:17;6.25;;;3.40;;
47617;SDS011;33336;36.728;-4.414;2022-08-03T21:46:20;10.68;;;3.90;;
47617;SDS011;33336;36.728;-4.414;2022-08-03T21:51:24;7.55;;;3.55;;
47617;SDS011;33336;36.728;-4.414;2022-08-03T21:56:40;9.20;;;3.92;;
47617;SDS011;33336;36.728;-4.414;2022-08-03T22:01:43;5.47;;;3.10;;
47617;SDS011;33336;36.728;-4.414;2022-08-03T22:06:48;7.20;;;3.17;;
47617;SDS011;33336;36.728;-4.414;2022-08-03T22:11:53;7.88;;;3.15;;
47617;SDS011;33336;36.728;-4.414;2022-08-03T22:16:56;9.15;;;3.80;;
47617;SDS011;33336;36.728;-4.414;2022-08-03T22:22:00;5.07;;;2.92;;
47617;SDS011;33336;36.728;-4.414;2022-08-03T22:27:09;5.75;;;2.72;;
47617;SDS011;33336;36.728;-4.414;2022-08-03T22:32:31;7.63;;;3.10;;
47617;SDS011;33336;36.728;-4.414;2022-08-03T22:37:37;8.15;;;3.33;;
47617;SDS011;33336;36.728;-4.414;2022-08-03T22:42:43;6.53;;;2.72;;
47617;SDS011;33336;36.728;-4.414;2022-08-03T22:47:49;5.20;;;3.03;;
47617;SDS011;33336;36.728;-4.414;2022-08-03T22:52:53;6.43;;;2.88;;
47617;SDS011;33336;36.728;-4.414;2022-08-03T22:57:58;5.07;;;3.08;;
47617;SDS011;33336;36.728;-4.414;2022-08-03T23:03:00;6.55;;;3.13;;
47617;SDS011;33336;36.728;-4.414;2022-08-03T23:08:07;6.03;;;3.22;;
47617;SDS011;33336;36.728;-4.414;2022-08-03T23:13:13;7.50;;;3.15;;
47617;SDS011;33336;36.728;-4.414;2022-08-03T23:18:18;5.18;;;2.83;;
47617;SDS011;33336;36.728;-4.414;2022-08-03T23:23:23;6.60;;;3.27;;
47617;SDS011;33336;36.728;-4.414;2022-08-03T23:28:29;6.65;;;3.30;;
47617;SDS011;33336;36.728;-4.414;2022-08-03T23:33:33;11.07;;;3.10;;
47617;SDS011;33336;36.728;-4.414;2022-08-03T23:38:39;7.00;;;2.80;;
47617;SDS011;33336;36.728;-4.414;2022-08-03T23:43:44;8.90;;;2.83;;
47617;SDS011;33336;36.728;-4.414;2022-08-03T23:48:48;9.40;;;3.53;;
47617;SDS011;33336;36.728;-4.414;2022-08-03T23:53:52;7.15;;;3.08;;
47617;SDS011;33336;36.728;-4.414;2022-08-03T23:59:05;6.10;;;2.65;;
